sensor_id;sensor_type;location;lat;lon;timestamp;temperature;humidity
3602;DHT22;1815;50.950;6.920;2022-12-18T00:00:44;-1.90;99.90
3602;DHT22;1815;50.950;6.920;2022-12-18T00:03:13;-1.90;99.90
3602;DHT22;1815;50.950;6.920;2022-12-18T00:05:47;-1.90;99.90
3602;DHT22;1815;50.950;6.920;2022-12-18T00:08:13;-2.00;99.90
3602;DHT22;1815;50.950;6.920;2022-12-18T00:10:38;-2.00;99.90
3602;DHT22;1815;50.950;6.920;2022-12-18T00:13:04;-2.00;99.90
3602;DHT22;1815;50.950;6.920;2022-12-18T00:15:30;-2.00;99.90
3602;DHT22;1815;50.950;6.920;2022-12-18T00:17:55;-2.00;99.90
3602;DHT22;1815;50.950;6.920;2022-12-18T00:20:21;-2.00;99.90
3602;DHT22;1815;50.950;6.920;2022-12-18T00:22:52;-2.00;99.90
3602;DHT22;1815;50.950;6.920;2022-12-18T00:25:18;-2.00;99.90
3602;DHT22;1815;50.950;6.920;2022-12-18T00:27:43;-2.00;99.90
3602;DHT22;1815;50.950;6.920;2022-12-18T00:30:10;-2.00;99.90
3602;DHT22;1815;50.950;6.920;2022-12-18T00:32:36;-2.10;99.90
3602;DHT22;1815;50.950;6.920;2022-12-18T00:35:03;-2.10;99.90
3602;DHT22;1815;50.950;6.920;2022-12-18T00:37:30;-2.00;99.90
3602;DHT22;1815;50.950;6.920;2022-12-18T00:39:56;-2.00;99.90
3602;DHT22;1815;50.950;6.920;2022-12-18T00:42:21;-2.00;99.90
3602;DHT22;1815;50.950;6.920;2022-12-18T00:45:06;-2.00;99.90
3602;DHT22;1815;50.950;6.920;2022-12-18T00:47:32;-2.00;99.90
3602;DHT22;1815;50.950;6.920;2022-12-18T00:49:57;-2.00;99.90
3602;DHT22;1815;50.950;6.920;2022-12-18T00:52:23;-2.00;99.90
3602;DHT22;1815;50.950;6.920;2022-12-18T00:54:49;-2.00;99.90
3602;DHT22;1815;50.950;6.920;2022-12-18T00:57:17;-2.00;99.90
3602;DHT22;1815;50.950;6.920;2022-12-18T00:59:43;-2.00;99.90
3602;DHT22;1815;50.950;6.920;2022-12-18T01:02:10;-2.00;99.90
3602;DHT22;1815;50.950;6.920;2022-12-18T01:04:38;-2.10;99.90
3602;DHT22;1815;50.950;6.920;2022-12-18T01:07:07;-2.10;99.90
3602;DHT22;1815;50.950;6.920;2022-12-18T01:09:33;-2.10;99.90
3602;DHT22;1815;50.950;6.920;2022-12-18T01:12:00;-2.00;99.90
3602;DHT22;1815;50.950;6.920;2022-12-18T01:14:25;-2.00;99.90
3602;DHT22;1815;50.950;6.920;2022-12-18T01:16:52;-2.00;99.90
3602;DHT22;1815;50.950;6.920;2022-12-18T01:19:18;-2.00;99.90
3602;DHT22;1815;50.950;6.920;2022-12-18T01:21:45;-2.10;99.90
3602;DHT22;1815;50.950;6.920;2022-12-18T01:24:12;-2.10;99.90
3602;DHT22;1815;50.950;6.920;2022-12-18T01:26:38;-2.10;99.90
3602;DHT22;1815;50.950;6.920;2022-12-18T01:29:04;-2.10;99.90
3602;DHT22;1815;50.950;6.920;2022-12-18T01:31:31;-2.10;99.90
3602;DHT22;1815;50.950;6.920;2022-12-18T01:33:59;-2.10;99.90
3602;DHT22;1815;50.950;6.920;2022-12-18T01:36:28;-2.10;99.90
3602;DHT22;1815;50.950;6.920;2022-12-18T01:38:55;-2.10;99.90
3602;DHT22;1815;50.950;6.920;2022-12-18T01:41:24;-2.10;99.90
3602;DHT22;1815;50.950;6.920;2022-12-18T01:43:57;-2.00;99.90
3602;DHT22;1815;50.950;6.920;2022-12-18T01:46:24;-2.00;99.90
3602;DHT22;1815;50.950;6.920;2022-12-18T01:48:57;-2.10;99.90
3602;DHT22;1815;50.950;6.920;2022-12-18T01:51:24;-2.00;99.90
3602;DHT22;1815;50.950;6.920;2022-12-18T01:53:51;-2.10;99.90
3602;DHT22;1815;50.950;6.920;2022-12-18T01:56:18;-2.10;99.90
3602;DHT22;1815;50.950;6.920;2022-12-18T01:59:01;-2.10;99.90
3602;DHT22;1815;50.950;6.920;2022-12-18T02:01:29;-2.10;99.90
3602;DHT22;1815;50.950;6.920;2022-12-18T02:03:55;-2.10;99.90
3602;DHT22;1815;50.950;6.920;2022-12-18T02:06:29;-2.20;99.90
3602;DHT22;1815;50.950;6.920;2022-12-18T02:09:08;-2.10;99.90
3602;DHT22;1815;50.950;6.920;2022-12-18T02:12:34;-2.10;99.90
3602;DHT22;1815;50.950;6.920;2022-12-18T02:15:16;-2.10;99.90
3602;DHT22;1815;50.950;6.920;2022-12-18T02:18:10;-2.20;99.90
3602;DHT22;1815;50.950;6.920;2022-12-18T02:23:52;-2.10;99.90
3602;DHT22;1815;50.950;6.920;2022-12-18T02:26:34;-2.10;99.90
3602;DHT22;1815;50.950;6.920;2022-12-18T02:29:18;-2.10;99.90
3602;DHT22;1815;50.950;6.920;2022-12-18T02:31:52;-2.10;99.90
3602;DHT22;1815;50.950;6.920;2022-12-18T02:34:23;-2.10;99.90
3602;DHT22;1815;50.950;6.920;2022-12-18T02:36:51;-2.10;99.90
3602;DHT22;1815;50.950;6.920;2022-12-18T02:39:20;-2.10;99.90
3602;DHT22;1815;50.950;6.920;2022-12-18T02:41:59;-2.00;99.90
3602;DHT22;1815;50.950;6.920;2022-12-18T02:44:25;-2.00;99.90
3602;DHT22;1815;50.950;6.920;2022-12-18T02:46:52;-2.00;99.90
3602;DHT22;1815;50.950;6.920;2022-12-18T02:51:55;-2.00;99.90
3602;DHT22;1815;50.950;6.920;2022-12-18T02:57:15;-2.00;99.90
3602;DHT22;1815;50.950;6.920;2022-12-18T03:00:06;-2.00;99.90
3602;DHT22;1815;50.950;6.920;2022-12-18T03:02:55;-2.00;99.90
3602;DHT22;1815;50.950;6.920;2022-12-18T03:05:45;-2.10;99.90
3602;DHT22;1815;50.950;6.920;2022-12-18T03:08:23;-2.10;99.90
3602;DHT22;1815;50.950;6.920;2022-12-18T03:11:15;-2.10;99.90
3602;DHT22;1815;50.950;6.920;2022-12-18T03:13:49;-2.10;99.90
3602;DHT22;1815;50.950;6.920;2022-12-18T03:16:22;-2.10;99.90
3602;DHT22;1815;50.950;6.920;2022-12-18T03:18:53;-2.10;99.90
3602;DHT22;1815;50.950;6.920;2022-12-18T03:21:23;-2.20;99.90
3602;DHT22;1815;50.950;6.920;2022-12-18T03:23:52;-2.20;99.90
3602;DHT22;1815;50.950;6.920;2022-12-18T03:26:25;-2.20;99.90
3602;DHT22;1815;50.950;6.920;2022-12-18T03:29:01;-2.20;99.90
3602;DHT22;1815;50.950;6.920;2022-12-18T03:31:31;-2.20;99.90
3602;DHT22;1815;50.950;6.920;2022-12-18T03:34:12;-2.20;99.90
3602;DHT22;1815;50.950;6.920;2022-12-18T03:36:44;-2.10;99.90
3602;DHT22;1815;50.950;6.920;2022-12-18T03:39:11;-2.10;99.90
3602;DHT22;1815;50.950;6.920;2022-12-18T03:41:52;-2.10;99.90
3602;DHT22;1815;50.950;6.920;2022-12-18T03:44:43;-2.10;99.90
3602;DHT22;1815;50.950;6.920;2022-12-18T03:50:11;-2.20;99.90
3602;DHT22;1815;50.950;6.920;2022-12-18T03:55:23;-2.20;99.90
3602;DHT22;1815;50.950;6.920;2022-12-18T03:57:57;-2.20;99.90
3602;DHT22;1815;50.950;6.920;2022-12-18T04:00:30;-2.20;99.90
3602;DHT22;1815;50.950;6.920;2022-12-18T04:03:04;-2.30;99.90
3602;DHT22;1815;50.950;6.920;2022-12-18T04:05:38;-2.30;99.90
3602;DHT22;1815;50.950;6.920;2022-12-18T04:08:05;-2.30;99.90
3602;DHT22;1815;50.950;6.920;2022-12-18T04:10:36;-2.30;99.90
3602;DHT22;1815;50.950;6.920;2022-12-18T04:13:02;-2.30;99.90
3602;DHT22;1815;50.950;6.920;2022-12-18T04:15:28;-2.30;99.90
3602;DHT22;1815;50.950;6.920;2022-12-18T04:17:55;-2.30;99.90
3602;DHT22;1815;50.950;6.920;2022-12-18T04:20:23;-2.20;99.90
3602;DHT22;1815;50.950;6.920;2022-12-18T04:22:49;-2.20;99.90
3602;DHT22;1815;50.950;6.920;2022-12-18T04:25:18;-2.30;99.90
3602;DHT22;1815;50.950;6.920;2022-12-18T04:28:00;-2.30;99.90
3602;DHT22;1815;50.950;6.920;2022-12-18T04:30:26;-2.30;99.90
3602;DHT22;1815;50.950;6.920;2022-12-18T04:32:52;-2.30;99.90
3602;DHT22;1815;50.950;6.920;2022-12-18T04:35:19;-2.30;99.90
3602;DHT22;1815;50.950;6.920;2022-12-18T04:37:44;-2.30;99.90
3602;DHT22;1815;50.950;6.920;2022-12-18T04:40:11;-2.30;99.90
3602;DHT22;1815;50.950;6.920;2022-12-18T04:42:41;-2.30;99.90
3602;DHT22;1815;50.950;6.920;2022-12-18T04:45:07;-2.20;99.90
3602;DHT22;1815;50.950;6.920;2022-12-18T04:47:33;-2.30;99.90
3602;DHT22;1815;50.950;6.920;2022-12-18T04:49:59;-2.30;99.90
3602;DHT22;1815;50.950;6.920;2022-12-18T04:52:25;-2.40;99.90
3602;DHT22;1815;50.950;6.920;2022-12-18T04:54:50;-2.40;99.90
3602;DHT22;1815;50.950;6.920;2022-12-18T04:57:16;-2.40;99.90
3602;DHT22;1815;50.950;6.920;2022-12-18T04:59:44;-2.40;99.90
3602;DHT22;1815;50.950;6.920;2022-12-18T05:02:09;-2.50;99.90
3602;DHT22;1815;50.950;6.920;2022-12-18T05:04:35;-2.50;99.90
3602;DHT22;1815;50.950;6.920;2022-12-18T05:07:01;-2.50;99.90
3602;DHT22;1815;50.950;6.920;2022-12-18T05:09:27;-2.50;99.90
3602;DHT22;1815;50.950;6.920;2022-12-18T05:11:52;-2.50;99.90
3602;DHT22;1815;50.950;6.920;2022-12-18T05:14:19;-2.50;99.90
3602;DHT22;1815;50.950;6.920;2022-12-18T05:16:45;-2.50;99.90
3602;DHT22;1815;50.950;6.920;2022-12-18T05:19:10;-2.50;99.90
3602;DHT22;1815;50.950;6.920;2022-12-18T05:21:36;-2.50;99.90
3602;DHT22;1815;50.950;6.920;2022-12-18T05:24:02;-2.50;99.90
3602;DHT22;1815;50.950;6.920;2022-12-18T05:26:27;-2.50;99.90
3602;DHT22;1815;50.950;6.920;2022-12-18T05:28:56;-2.50;99.90
3602;DHT22;1815;50.950;6.920;2022-12-18T05:31:22;-2.50;99.90
3602;DHT22;1815;50.950;6.920;2022-12-18T05:33:48;-2.50;99.90
3602;DHT22;1815;50.950;6.920;2022-12-18T05:36:16;-2.50;99.90
3602;DHT22;1815;50.950;6.920;2022-12-18T05:38:42;-2.50;99.90
3602;DHT22;1815;50.950;6.920;2022-12-18T05:41:08;-2.50;99.90
3602;DHT22;1815;50.950;6.920;2022-12-18T05:43:36;-2.50;99.90
3602;DHT22;1815;50.950;6.920;2022-12-18T05:46:12;-2.50;99.90
3602;DHT22;1815;50.950;6.920;2022-12-18T05:48:38;-2.50;99.90
3602;DHT22;1815;50.950;6.920;2022-12-18T05:51:07;-2.40;99.90
3602;DHT22;1815;50.950;6.920;2022-12-18T05:53:33;-2.40;99.90
3602;DHT22;1815;50.950;6.920;2022-12-18T05:56:08;-2.40;99.90
3602;DHT22;1815;50.950;6.920;2022-12-18T05:58:34;-2.40;99.90
3602;DHT22;1815;50.950;6.920;2022-12-18T06:01:07;-2.40;99.90
3602;DHT22;1815;50.950;6.920;2022-12-18T06:03:34;-2.30;99.90
3602;DHT22;1815;50.950;6.920;2022-12-18T06:05:59;-2.30;99.90
3602;DHT22;1815;50.950;6.920;2022-12-18T06:08:25;-2.30;99.90
3602;DHT22;1815;50.950;6.920;2022-12-18T06:10:51;-2.40;99.90
3602;DHT22;1815;50.950;6.920;2022-12-18T06:13:18;-2.30;99.90
3602;DHT22;1815;50.950;6.920;2022-12-18T06:15:44;-2.30;99.90
3602;DHT22;1815;50.950;6.920;2022-12-18T06:18:09;-2.30;99.90
3602;DHT22;1815;50.950;6.920;2022-12-18T06:20:35;-2.30;99.90
3602;DHT22;1815;50.950;6.920;2022-12-18T06:23:03;-2.30;99.90
3602;DHT22;1815;50.950;6.920;2022-12-18T06:25:28;-2.30;99.90
3602;DHT22;1815;50.950;6.920;2022-12-18T06:27:54;-2.30;99.90
3602;DHT22;1815;50.950;6.920;2022-12-18T06:30:20;-2.40;99.90
3602;DHT22;1815;50.950;6.920;2022-12-18T06:32:48;-2.40;99.90
3602;DHT22;1815;50.950;6.920;2022-12-18T06:35:14;-2.30;99.90
3602;DHT22;1815;50.950;6.920;2022-12-18T06:37:39;-2.30;99.90
3602;DHT22;1815;50.950;6.920;2022-12-18T06:40:06;-2.30;99.90
3602;DHT22;1815;50.950;6.920;2022-12-18T06:42:32;-2.30;99.90
3602;DHT22;1815;50.950;6.920;2022-12-18T06:44:57;-2.30;99.90
3602;DHT22;1815;50.950;6.920;2022-12-18T06:47:23;-2.30;99.90
3602;DHT22;1815;50.950;6.920;2022-12-18T06:49:49;-2.30;99.90
3602;DHT22;1815;50.950;6.920;2022-12-18T06:52:14;-2.30;99.90
3602;DHT22;1815;50.950;6.920;2022-12-18T06:54:43;-2.30;99.90
3602;DHT22;1815;50.950;6.920;2022-12-18T06:57:09;-2.40;99.90
3602;DHT22;1815;50.950;6.920;2022-12-18T06:59:34;-2.40;99.90
3602;DHT22;1815;50.950;6.920;2022-12-18T07:02:00;-2.40;99.90
3602;DHT22;1815;50.950;6.920;2022-12-18T07:04:30;-2.40;99.90
3602;DHT22;1815;50.950;6.920;2022-12-18T07:06:56;-2.40;99.90
3602;DHT22;1815;50.950;6.920;2022-12-18T07:09:21;-2.40;99.90
3602;DHT22;1815;50.950;6.920;2022-12-18T07:11:47;-2.50;99.90
3602;DHT22;1815;50.950;6.920;2022-12-18T07:14:13;-2.50;99.90
3602;DHT22;1815;50.950;6.920;2022-12-18T07:16:38;-2.40;99.90
3602;DHT22;1815;50.950;6.920;2022-12-18T07:19:04;-2.40;99.90
3602;DHT22;1815;50.950;6.920;2022-12-18T07:21:30;-2.40;99.90
3602;DHT22;1815;50.950;6.920;2022-12-18T07:23:56;-2.40;99.90
3602;DHT22;1815;50.950;6.920;2022-12-18T07:26:22;-2.40;99.90
3602;DHT22;1815;50.950;6.920;2022-12-18T07:28:48;-2.40;99.90
3602;DHT22;1815;50.950;6.920;2022-12-18T07:31:19;-2.40;99.90
3602;DHT22;1815;50.950;6.920;2022-12-18T07:33:46;-2.40;99.90
3602;DHT22;1815;50.950;6.920;2022-12-18T07:36:12;-2.40;99.90
3602;DHT22;1815;50.950;6.920;2022-12-18T07:38:38;-2.40;99.90
3602;DHT22;1815;50.950;6.920;2022-12-18T07:41:06;-2.40;99.90
3602;DHT22;1815;50.950;6.920;2022-12-18T07:43:32;-2.40;99.90
3602;DHT22;1815;50.950;6.920;2022-12-18T07:45:58;-2.40;99.90
3602;DHT22;1815;50.950;6.920;2022-12-18T07:48:24;-2.40;99.90
3602;DHT22;1815;50.950;6.920;2022-12-18T07:50:49;-2.40;99.90
3602;DHT22;1815;50.950;6.920;2022-12-18T07:53:15;-2.40;99.90
3602;DHT22;1815;50.950;6.920;2022-12-18T07:55:41;-2.40;99.90
3602;DHT22;1815;50.950;6.920;2022-12-18T07:58:07;-2.40;99.90
3602;DHT22;1815;50.950;6.920;2022-12-18T08:00:34;-2.40;99.90
3602;DHT22;1815;50.950;6.920;2022-12-18T08:03:05;-2.40;99.90
3602;DHT22;1815;50.950;6.920;2022-12-18T08:05:34;-2.40;99.90
3602;DHT22;1815;50.950;6.920;2022-12-18T08:07:59;-2.40;99.90
3602;DHT22;1815;50.950;6.920;2022-12-18T08:10:25;-2.40;99.90
3602;DHT22;1815;50.950;6.920;2022-12-18T08:12:51;-2.30;99.90
3602;DHT22;1815;50.950;6.920;2022-12-18T08:15:17;-2.30;99.90
3602;DHT22;1815;50.950;6.920;2022-12-18T08:17:43;-2.30;99.90
3602;DHT22;1815;50.950;6.920;2022-12-18T08:20:09;-2.30;99.90
3602;DHT22;1815;50.950;6.920;2022-12-18T08:22:35;-2.30;99.90
3602;DHT22;1815;50.950;6.920;2022-12-18T08:25:05;-2.20;99.90
3602;DHT22;1815;50.950;6.920;2022-12-18T08:27:31;-2.20;99.90
3602;DHT22;1815;50.950;6.920;2022-12-18T08:29:57;-2.10;99.90
3602;DHT22;1815;50.950;6.920;2022-12-18T08:32:24;-2.10;99.90
3602;DHT22;1815;50.950;6.920;2022-12-18T08:34:50;-2.00;99.90
3602;DHT22;1815;50.950;6.920;2022-12-18T08:37:16;-2.00;99.90
3602;DHT22;1815;50.950;6.920;2022-12-18T08:39:41;-2.00;99.90
3602;DHT22;1815;50.950;6.920;2022-12-18T08:42:07;-2.00;99.90
3602;DHT22;1815;50.950;6.920;2022-12-18T08:44:51;-1.90;99.90
3602;DHT22;1815;50.950;6.920;2022-12-18T08:47:17;-1.90;99.90
3602;DHT22;1815;50.950;6.920;2022-12-18T08:49:43;-1.80;99.90
3602;DHT22;1815;50.950;6.920;2022-12-18T08:52:08;-1.70;99.90
3602;DHT22;1815;50.950;6.920;2022-12-18T08:54:34;-1.70;99.90
3602;DHT22;1815;50.950;6.920;2022-12-18T08:57:00;-1.60;99.90
3602;DHT22;1815;50.950;6.920;2022-12-18T08:59:28;-1.50;99.90
3602;DHT22;1815;50.950;6.920;2022-12-18T09:01:54;-1.50;99.90
3602;DHT22;1815;50.950;6.920;2022-12-18T09:04:21;-1.50;99.90
3602;DHT22;1815;50.950;6.920;2022-12-18T09:06:47;-1.40;99.90
3602;DHT22;1815;50.950;6.920;2022-12-18T09:09:12;-1.40;99.90
3602;DHT22;1815;50.950;6.920;2022-12-18T09:11:38;-1.30;99.90
3602;DHT22;1815;50.950;6.920;2022-12-18T09:14:09;-1.20;99.90
3602;DHT22;1815;50.950;6.920;2022-12-18T09:16:35;-1.10;99.90
3602;DHT22;1815;50.950;6.920;2022-12-18T09:19:03;-1.00;99.90
3602;DHT22;1815;50.950;6.920;2022-12-18T09:21:34;-0.90;99.90
3602;DHT22;1815;50.950;6.920;2022-12-18T09:24:04;-0.80;99.90
3602;DHT22;1815;50.950;6.920;2022-12-18T09:26:30;-0.70;99.90
3602;DHT22;1815;50.950;6.920;2022-12-18T09:28:56;-0.70;99.90
3602;DHT22;1815;50.950;6.920;2022-12-18T09:31:23;-0.70;99.90
3602;DHT22;1815;50.950;6.920;2022-12-18T09:33:49;-0.60;99.90
3602;DHT22;1815;50.950;6.920;2022-12-18T09:36:17;-0.50;99.90
3602;DHT22;1815;50.950;6.920;2022-12-18T09:38:44;-0.40;99.90
3602;DHT22;1815;50.950;6.920;2022-12-18T09:44:05;-0.20;99.90
3602;DHT22;1815;50.950;6.920;2022-12-18T09:46:38;-0.10;99.90
3602;DHT22;1815;50.950;6.920;2022-12-18T09:49:10;0.00;99.90
3602;DHT22;1815;50.950;6.920;2022-12-18T09:51:44;0.10;99.90
3602;DHT22;1815;50.950;6.920;2022-12-18T09:54:20;0.10;99.90
3602;DHT22;1815;50.950;6.920;2022-12-18T09:56:47;0.30;99.90
3602;DHT22;1815;50.950;6.920;2022-12-18T09:59:35;0.40;99.90
3602;DHT22;1815;50.950;6.920;2022-12-18T10:02:22;0.40;99.90
3602;DHT22;1815;50.950;6.920;2022-12-18T10:10:32;0.60;99.90
3602;DHT22;1815;50.950;6.920;2022-12-18T10:13:22;0.70;99.90
3602;DHT22;1815;50.950;6.920;2022-12-18T10:18:33;0.80;99.90
3602;DHT22;1815;50.950;6.920;2022-12-18T10:21:11;0.80;99.90
3602;DHT22;1815;50.950;6.920;2022-12-18T10:24:12;0.90;99.90
3602;DHT22;1815;50.950;6.920;2022-12-18T10:26:34;1.00;99.90
3602;DHT22;1815;50.950;6.920;2022-12-18T10:29:00;1.10;99.90
3602;DHT22;1815;50.950;6.920;2022-12-18T10:31:26;1.10;99.90
3602;DHT22;1815;50.950;6.920;2022-12-18T10:33:55;1.10;99.90
3602;DHT22;1815;50.950;6.920;2022-12-18T10:36:25;1.20;99.90
3602;DHT22;1815;50.950;6.920;2022-12-18T10:39:21;1.30;99.90
3602;DHT22;1815;50.950;6.920;2022-12-18T10:41:48;1.30;99.90
3602;DHT22;1815;50.950;6.920;2022-12-18T10:44:21;1.20;99.90
3602;DHT22;1815;50.950;6.920;2022-12-18T10:46:54;1.30;99.90
3602;DHT22;1815;50.950;6.920;2022-12-18T10:49:24;1.40;99.90
3602;DHT22;1815;50.950;6.920;2022-12-18T10:51:51;1.40;99.90
3602;DHT22;1815;50.950;6.920;2022-12-18T10:54:30;1.40;99.90
3602;DHT22;1815;50.950;6.920;2022-12-18T10:57:15;1.40;99.90
3602;DHT22;1815;50.950;6.920;2022-12-18T10:59:53;1.40;99.90
3602;DHT22;1815;50.950;6.920;2022-12-18T11:02:28;1.50;99.90
3602;DHT22;1815;50.950;6.920;2022-12-18T11:04:58;1.40;99.90
3602;DHT22;1815;50.950;6.920;2022-12-18T11:07:23;1.50;99.90
3602;DHT22;1815;50.950;6.920;2022-12-18T11:10:00;1.50;99.90
3602;DHT22;1815;50.950;6.920;2022-12-18T11:12:29;1.40;99.90
3602;DHT22;1815;50.950;6.920;2022-12-18T11:14:56;1.50;99.90
3602;DHT22;1815;50.950;6.920;2022-12-18T11:17:35;1.50;99.90
3602;DHT22;1815;50.950;6.920;2022-12-18T11:20:05;1.50;99.90
3602;DHT22;1815;50.950;6.920;2022-12-18T11:22:36;1.50;99.90
3602;DHT22;1815;50.950;6.920;2022-12-18T11:25:05;1.50;99.90
3602;DHT22;1815;50.950;6.920;2022-12-18T11:27:32;1.50;99.90
3602;DHT22;1815;50.950;6.920;2022-12-18T11:32:55;1.70;99.90
3602;DHT22;1815;50.950;6.920;2022-12-18T11:43:56;1.80;99.90
3602;DHT22;1815;50.950;6.920;2022-12-18T11:46:40;1.70;99.90
3602;DHT22;1815;50.950;6.920;2022-12-18T11:49:15;1.60;99.90
3602;DHT22;1815;50.950;6.920;2022-12-18T11:51:50;1.60;99.90
3602;DHT22;1815;50.950;6.920;2022-12-18T11:54:17;1.60;99.90
3602;DHT22;1815;50.950;6.920;2022-12-18T11:59:39;1.60;99.90
3602;DHT22;1815;50.950;6.920;2022-12-18T12:07:37;1.60;99.90
3602;DHT22;1815;50.950;6.920;2022-12-18T12:10:32;1.70;99.90
3602;DHT22;1815;50.950;6.920;2022-12-18T12:19:31;1.60;99.90
3602;DHT22;1815;50.950;6.920;2022-12-18T12:21:41;1.60;99.90
3602;DHT22;1815;50.950;6.920;2022-12-18T12:24:14;1.50;99.90
3602;DHT22;1815;50.950;6.920;2022-12-18T12:26:59;1.50;99.90
3602;DHT22;1815;50.950;6.920;2022-12-18T12:29:40;1.50;99.90
3602;DHT22;1815;50.950;6.920;2022-12-18T12:32:29;1.50;99.90
3602;DHT22;1815;50.950;6.920;2022-12-18T12:38:41;1.70;99.90
3602;DHT22;1815;50.950;6.920;2022-12-18T12:41:13;1.60;99.90
3602;DHT22;1815;50.950;6.920;2022-12-18T12:44:01;1.60;99.90
3602;DHT22;1815;50.950;6.920;2022-12-18T12:46:31;1.80;99.90
3602;DHT22;1815;50.950;6.920;2022-12-18T12:49:19;1.90;99.90
3602;DHT22;1815;50.950;6.920;2022-12-18T12:52:05;2.00;99.90
3602;DHT22;1815;50.950;6.920;2022-12-18T12:54:32;1.80;99.90
3602;DHT22;1815;50.950;6.920;2022-12-18T13:02:18;1.60;99.90
3602;DHT22;1815;50.950;6.920;2022-12-18T13:07:47;1.70;99.90
3602;DHT22;1815;50.950;6.920;2022-12-18T13:13:07;1.50;99.90
3602;DHT22;1815;50.950;6.920;2022-12-18T13:15:41;1.40;99.90
3602;DHT22;1815;50.950;6.920;2022-12-18T13:20:36;1.70;99.90
3602;DHT22;1815;50.950;6.920;2022-12-18T13:25:55;1.60;99.90
3602;DHT22;1815;50.950;6.920;2022-12-18T13:31:01;1.50;99.90
3602;DHT22;1815;50.950;6.920;2022-12-18T13:36:04;1.60;99.90
3602;DHT22;1815;50.950;6.920;2022-12-18T13:38:36;1.70;99.90
3602;DHT22;1815;50.950;6.920;2022-12-18T13:41:21;1.70;99.90
3602;DHT22;1815;50.950;6.920;2022-12-18T13:43:51;1.60;99.90
3602;DHT22;1815;50.950;6.920;2022-12-18T13:46:30;1.60;99.90
3602;DHT22;1815;50.950;6.920;2022-12-18T13:51:49;1.60;99.90
3602;DHT22;1815;50.950;6.920;2022-12-18T13:54:36;1.60;99.90
3602;DHT22;1815;50.950;6.920;2022-12-18T13:57:04;1.60;99.90
3602;DHT22;1815;50.950;6.920;2022-12-18T13:59:38;1.60;99.90
3602;DHT22;1815;50.950;6.920;2022-12-18T14:02:16;1.60;99.90
3602;DHT22;1815;50.950;6.920;2022-12-18T14:04:45;1.60;99.90
3602;DHT22;1815;50.950;6.920;2022-12-18T14:07:25;1.50;99.90
3602;DHT22;1815;50.950;6.920;2022-12-18T14:09:57;1.40;99.90
3602;DHT22;1815;50.950;6.920;2022-12-18T14:12:37;1.30;99.90
3602;DHT22;1815;50.950;6.920;2022-12-18T14:17:57;1.30;99.90
3602;DHT22;1815;50.950;6.920;2022-12-18T14:20:25;1.40;99.90
3602;DHT22;1815;50.950;6.920;2022-12-18T14:22:59;1.40;99.90
3602;DHT22;1815;50.950;6.920;2022-12-18T14:25:28;1.40;99.90
3602;DHT22;1815;50.950;6.920;2022-12-18T14:30:37;1.40;99.90
3602;DHT22;1815;50.950;6.920;2022-12-18T14:33:08;1.40;99.90
3602;DHT22;1815;50.950;6.920;2022-12-18T14:35:37;1.50;99.90
3602;DHT22;1815;50.950;6.920;2022-12-18T14:41:15;1.40;99.90
3602;DHT22;1815;50.950;6.920;2022-12-18T14:43:43;1.30;99.90
3602;DHT22;1815;50.950;6.920;2022-12-18T14:48:53;1.30;99.90
3602;DHT22;1815;50.950;6.920;2022-12-18T14:51:31;1.40;99.90
3602;DHT22;1815;50.950;6.920;2022-12-18T14:54:05;1.40;99.90
3602;DHT22;1815;50.950;6.920;2022-12-18T14:56:45;1.30;99.90
3602;DHT22;1815;50.950;6.920;2022-12-18T15:04:35;1.20;99.90
3602;DHT22;1815;50.950;6.920;2022-12-18T15:09:37;1.10;99.90
3602;DHT22;1815;50.950;6.920;2022-12-18T15:12:03;1.10;99.90
3602;DHT22;1815;50.950;6.920;2022-12-18T15:16:55;1.00;99.90
3602;DHT22;1815;50.950;6.920;2022-12-18T15:19:28;0.90;99.90
3602;DHT22;1815;50.950;6.920;2022-12-18T15:21:58;0.80;99.90
3602;DHT22;1815;50.950;6.920;2022-12-18T15:24:29;1.00;99.90
3602;DHT22;1815;50.950;6.920;2022-12-18T15:26:56;0.90;99.90
3602;DHT22;1815;50.950;6.920;2022-12-18T15:29:22;0.80;99.90
3602;DHT22;1815;50.950;6.920;2022-12-18T15:32:05;0.80;99.90
3602;DHT22;1815;50.950;6.920;2022-12-18T15:34:41;0.70;99.90
3602;DHT22;1815;50.950;6.920;2022-12-18T15:37:07;0.80;99.90
3602;DHT22;1815;50.950;6.920;2022-12-18T15:39:33;0.80;99.90
3602;DHT22;1815;50.950;6.920;2022-12-18T15:42:01;0.80;99.90
3602;DHT22;1815;50.950;6.920;2022-12-18T15:44:46;0.80;99.90
3602;DHT22;1815;50.950;6.920;2022-12-18T15:47:12;0.80;99.90
3602;DHT22;1815;50.950;6.920;2022-12-18T15:49:38;0.70;99.90
3602;DHT22;1815;50.950;6.920;2022-12-18T15:52:05;0.70;99.90
3602;DHT22;1815;50.950;6.920;2022-12-18T15:54:31;0.70;99.90
3602;DHT22;1815;50.950;6.920;2022-12-18T15:57:15;0.70;99.90
3602;DHT22;1815;50.950;6.920;2022-12-18T15:59:56;0.80;99.90
3602;DHT22;1815;50.950;6.920;2022-12-18T16:02:23;0.80;99.90
3602;DHT22;1815;50.950;6.920;2022-12-18T16:04:50;0.80;99.90
3602;DHT22;1815;50.950;6.920;2022-12-18T16:07:18;0.70;99.90
3602;DHT22;1815;50.950;6.920;2022-12-18T16:09:44;0.70;99.90
3602;DHT22;1815;50.950;6.920;2022-12-18T16:12:18;0.70;99.90
3602;DHT22;1815;50.950;6.920;2022-12-18T16:14:45;0.70;99.90
3602;DHT22;1815;50.950;6.920;2022-12-18T16:17:12;0.60;99.90
3602;DHT22;1815;50.950;6.920;2022-12-18T16:19:38;0.60;99.90
3602;DHT22;1815;50.950;6.920;2022-12-18T16:22:04;0.60;99.90
3602;DHT22;1815;50.950;6.920;2022-12-18T16:24:32;0.60;99.90
3602;DHT22;1815;50.950;6.920;2022-12-18T16:26:59;0.60;99.90
3602;DHT22;1815;50.950;6.920;2022-12-18T16:29:28;0.60;99.90
3602;DHT22;1815;50.950;6.920;2022-12-18T16:31:54;0.70;99.90
3602;DHT22;1815;50.950;6.920;2022-12-18T16:34:24;0.70;99.90
3602;DHT22;1815;50.950;6.920;2022-12-18T16:36:56;0.70;99.90
3602;DHT22;1815;50.950;6.920;2022-12-18T16:39:22;0.70;99.90
3602;DHT22;1815;50.950;6.920;2022-12-18T16:41:48;0.80;99.90
3602;DHT22;1815;50.950;6.920;2022-12-18T16:44:14;0.70;99.90
3602;DHT22;1815;50.950;6.920;2022-12-18T16:46:41;0.80;99.90
3602;DHT22;1815;50.950;6.920;2022-12-18T16:49:15;0.80;99.90
3602;DHT22;1815;50.950;6.920;2022-12-18T16:51:42;0.80;99.90
3602;DHT22;1815;50.950;6.920;2022-12-18T16:54:08;0.80;99.90
3602;DHT22;1815;50.950;6.920;2022-12-18T16:56:34;0.90;99.90
3602;DHT22;1815;50.950;6.920;2022-12-18T16:59:02;1.00;99.90
3602;DHT22;1815;50.950;6.920;2022-12-18T17:01:29;1.00;99.90
3602;DHT22;1815;50.950;6.920;2022-12-18T17:03:59;1.00;99.90
3602;DHT22;1815;50.950;6.920;2022-12-18T17:06:29;1.00;99.90
3602;DHT22;1815;50.950;6.920;2022-12-18T17:09:00;1.00;99.90
3602;DHT22;1815;50.950;6.920;2022-12-18T17:11:28;1.00;99.90
3602;DHT22;1815;50.950;6.920;2022-12-18T17:13:54;1.00;99.90
3602;DHT22;1815;50.950;6.920;2022-12-18T17:16:21;1.10;99.90
3602;DHT22;1815;50.950;6.920;2022-12-18T17:18:47;1.10;99.90
3602;DHT22;1815;50.950;6.920;2022-12-18T17:21:13;1.00;99.90
3602;DHT22;1815;50.950;6.920;2022-12-18T17:23:41;1.00;99.90
3602;DHT22;1815;50.950;6.920;2022-12-18T17:26:08;1.00;99.90
3602;DHT22;1815;50.950;6.920;2022-12-18T17:28:35;1.00;99.90
3602;DHT22;1815;50.950;6.920;2022-12-18T17:31:09;1.00;99.90
3602;DHT22;1815;50.950;6.920;2022-12-18T17:33:34;1.00;99.90
3602;DHT22;1815;50.950;6.920;2022-12-18T17:36:00;1.00;99.90
3602;DHT22;1815;50.950;6.920;2022-12-18T17:38:26;1.00;99.90
3602;DHT22;1815;50.950;6.920;2022-12-18T17:40:52;0.90;99.90
3602;DHT22;1815;50.950;6.920;2022-12-18T17:43:17;0.90;99.90
3602;DHT22;1815;50.950;6.920;2022-12-18T17:45:44;0.80;99.90
3602;DHT22;1815;50.950;6.920;2022-12-18T17:48:10;0.90;99.90
3602;DHT22;1815;50.950;6.920;2022-12-18T17:50:36;0.80;99.90
3602;DHT22;1815;50.950;6.920;2022-12-18T17:53:02;0.80;99.90
3602;DHT22;1815;50.950;6.920;2022-12-18T17:55:28;0.70;99.90
3602;DHT22;1815;50.950;6.920;2022-12-18T17:57:55;0.80;99.90
3602;DHT22;1815;50.950;6.920;2022-12-18T18:00:20;0.80;99.90
3602;DHT22;1815;50.950;6.920;2022-12-18T18:02:46;0.80;99.90
3602;DHT22;1815;50.950;6.920;2022-12-18T18:05:12;0.80;99.90
3602;DHT22;1815;50.950;6.920;2022-12-18T18:07:39;0.80;99.90